Ships in port

Last updated: 17-11-2019 14:11

Ship name Call sign IMO Agent Date Time Berth Arrived From Purpose of call Cargo Loaded in/for Homeport ETD Date ETD Time GT Deadweight Width (BR) DR arr. Length (LOA)
ARCTIC HUNTER OUWK2 7719832 O.S. Energy GmbH 17-11-2019 05:50 51 DK OFFSHORE INSTALLATIONS Crew change/Provion/Bunkers Esbjerg 20-11-2019 22:22 453 415 9,0 3,8 40,6
HO BUGT (E 4) OU7149 219001695 Kutter Ho Bugt E 4 17-11-2019 00:20 12 OTHER DENMARK Discharge Shrimps ESBJERG 22-11-2019 22:22 19 0 5,5 2,5 16,0
WIND SUPPLIER OWBZ2 9566148 Ørsted Horns Rev 2 A/S 16-11-2019 19:00 24 DK OFFSHORE INSTALLATIONS Passenger call Passengers ESBJERG 17-11-2019 07:22 170 0 6,9 2,1 32,2
BOLDER OUYO2 9656993 Northern Offshore Services A/S 16-11-2019 18:00 3 DK OFFSHORE INSTALLATIONS Passenger call Passengers Fredericia 17-11-2019 08:22 118 55 7,0 2,1 20,9
KEM 1 OWQN2 9750866 KEM-Offshore ApS 16-11-2019 18:00 4 DK OFFSHORE INSTALLATIONS Passenger call Passengers Esbjerg 17-11-2019 07:22 127 18 7,5 2,1 26,5
ORKAMA M OZBO2 219010982 KEM-Offshore ApS 16-11-2019 16:30 21 DK OFFSHORE INSTALLATIONS Passenger call Passengers ESBJERG 17-11-2019 07:22 74 0 4,9 2,1 22,4
MONIKA PBTN 9815317 Blue Water Shipping A/S 16-11-2019 16:25 602 Beverwijk Load SCHEEMDA 18-11-2019 23:00 3415 4938 14,8 5,0 89,9
ISLAND PATRIOT LMWS 9325738 Copco A/S 16-11-2019 11:00 509 DK OFFSHORE INSTALLATIONS Load Chemicals ÅLESUND 19-11-2019 22:22 5800 4843 19,2 7,0 86,2
SØLØVEN OXQL2 8862569 O.S. Energy GmbH 16-11-2019 05:40 55 OFFSHORE, NORTH SEA Repair ESBJERG 20-11-2019 22:22 390 0 8,5 5,4 46,0
ISLAND CENTURION 3YHG 9579470 Blue Water Shipping A/S 15-11-2019 21:10 113 OTHER DENMARK Load Chemicals AALESUND 21-11-2019 11:11 6397 4788 20,0 5,5 93,0
DITTE JUUL (RI 562) OZWK 219001265 Kutter Ditte Juul Ri 562 15-11-2019 09:25 12 OTHER DENMARK Discharge Shrimps HVIDE SANDE 18-11-2019 07:22 58 0 5,5 2,5 17,2
RUNE EGHOLM (E 426) OYCG 220242000 Fiskeriselskabet Rune Egholm E 426 15-11-2019 09:20 12 OTHER DENMARK Discharge Shrimps ESBJERG 18-11-2019 07:22 67 0 5,9 2,5 18,0
EURUS EXPRESS OXGO2 9122978 Total E&P Danmark A/S 15-11-2019 08:50 505 DK OFFSHORE INSTALLATIONS Discharge/load Offshore cargo FREDERICIA 18-11-2019 18:00 3171 4170 19,7 4,9 83,7
ESVAGT CARPATHIA OXRZ2 9362114 Esvagt A/S 14-11-2019 20:10 310 DK OFFSHORE INSTALLATIONS Crew change/Provion/Bunkers ESBJERG 20-11-2019 22:22 963 641 11,5 4,3 46,1
SKOVEN OWOY2 8621408 Foga ApS 14-11-2019 14:05 52 DK OFFSHORE INSTALLATIONS Crew change/Provion/Bunkers HVIDE SANDE 17-11-2019 17:00 344 200 8,4 4,0 41,9
ESVAGT ALPHA OVZW2 7104752 Esvagt A/S 14-11-2019 11:55 303 Stavanger Crew change/Provion/Bunkers Esbjerg 27-11-2019 15:00 1244 610 12,0 4,7 68,5
WILHELMINA (E 78) OUSS 8718811 Fiskeriselskabet Cardium A/S 14-11-2019 06:00 64 OTHER DENMARK Discharge Bivalves (muslinger) ESBJERG 16-11-2019 22:22 283 316 10,0 2,0 40,2
ESVAGT BETA OUJM2 8817746 Esvagt A/S 13-11-2019 10:00 308 DK OFFSHORE INSTALLATIONS Crew change/Provion/Bunkers ESBJERG 19-11-2019 00:05 2360 1157 14,6 5,3 76,6
BLUE ORCA WDG8787 9670341 Jutlandia Terminal A/S 12-11-2019 22:25 603 DK OFFSHORE INSTALLATIONS Load Chemicals Galliano, LA 18-11-2019 22:22 7115 5065 18,3 5,9 94,8
ESVAGT CORNELIA OWTL2 9678434 Esvagt A/S 12-11-2019 21:15 301 DK OFFSHORE INSTALLATIONS Crew change/Provion/Bunkers Esbjerg 16-11-2019 22:22 963 621 11,5 4,4 45,8
REYKJANES OVSI2 7392311 Regnskabsbureauet ApS 12-11-2019 10:50 59 DK OFFSHORE INSTALLATIONS Crew change/Provion/Bunkers ESBJERG 20-11-2019 16:00 442 427 8,3 4,2 39,8
PONTOON 5511 9999999 Jutlandia Terminal A/S 11-11-2019 11:30 206 Rotterdam Mobilisation DORDRECHT 17-11-2019 22:22 467 1070 11,4 3,0 55,0
EN AVANT 1 PHDP 9342102 Jutlandia Terminal A/S 11-11-2019 11:30 401 Rotterdam Towing Dordrecht 17-11-2019 22:22 186 340 8,0 6,9 26,1
OCEAN ZEPHYR OXCV2 9000625 A1-Offshore ApS 07-11-2019 14:45 401 Murmansk Temporary laid up FREDERICIA 10-02-2020 22:22 3000 3476 17,5 4,7 87,1
ELISABETH M OXRF2 4400208 KEM-Offshore ApS 07-11-2019 04:00 21 DK OFFSHORE INSTALLATIONS Passenger call Passengers ESBJERG 22-11-2019 07:22 66 0 4,9 2,1 20,8
ESVAGT BRAVO OZJB2 5408221 Esvagt A/S 04-11-2019 14:55 304 DK OFFSHORE INSTALLATIONS Temporary laid up ESBJERG 30-11-2019 16:22 172 163 6,6 3,3 30,9
WEM 1 MCPB6 9831957 Niels Winther Maritime ApS 01-11-2019 12:55 5 OTHER DENMARK Await orders SUNDERLAND 30-11-2019 00:00 107 0 8,0 1,5 27,4
SEA CHALLENGER OWLQ2 9658290 Blue Water Shipping A/S 01-11-2019 00:30 85 Vlissingen Await orders Fredericia 30-11-2019 11:11 15934 15771 39,0 5,5 133,3
SONDERHO OYVH 8946779 Molslinjen A/S 01-11-2019 00:05 209 Nordby Havn, Fanø Passenger call Passengers ESBJERG 30-11-2019 23:55 93 30 6,0 1,5 25,0
FØNIKS SUPPORTER OUBJ2 8661020 Bunker One A/S 01-11-2019 00:05 7 Esbjerg Bunker another vessel københavn 30-11-2019 23:55 226 0 9,0 1,5 25,2
CICALA MFBZ4 8891443 M/V ST. CICALA / John Cefferty 01-11-2019 00:05 88 Esbjerg Temporary laid up MANCHESTER 30-11-2019 23:55 270 0 8,5 1,5 30,7
SVITZER HELIOS OWLX2 7321659 EM. Z. Svitzer A/S 01-11-2019 00:05 86 Esbjerg Towing ESBJERG 30-11-2019 23:55 304 650 9,8 4,7 32,9
SOUNDLINK OXFT2 219001789 B B Towing og Diving A/S 01-11-2019 00:05 65 Esbjerg Towing Esbjerg 30-11-2019 23:55 30 0 4,2 1,5 13,0
KIRSTEN GULLEV OU5826 219017273 Nordic Marine Oil A/S 01-11-2019 00:05 14 OTHER DENMARK Bunker another vessel ESBJERG 30-11-2019 23:55 21 70 4,3 1,5 14,4
STATHAV 9 FTJ1312 219017543 Nordic Marine Oil A/S 01-11-2019 00:05 14 Esbjerg Bunker another vessel KØBENHAVN 30-11-2019 23:55 19 0 4,3 1,5 12,4
FENJA OYIQ 9189378 Molslinjen A/S 01-11-2019 00:05 209 Nordby Havn, Fanø Passenger call Passengers - cars ESBJERG 30-11-2019 23:55 751 230 13,8 2,5 49,9
MENJA OYIU 9189380 Molslinjen A/S 01-11-2019 00:05 300 Nordby Havn, Fanø Passenger call Passengers - cars ESBJERG 30-11-2019 23:55 751 230 13,8 2,5 49,9
STATHAV 22 OWGA2 9096399 Nordic Marine Oil A/S 01-11-2019 00:05 14 Esbjerg Bunker another vessel Skagen 30-11-2019 23:55 131 0 6,5 3,5 27,4
SIGYN OZHB2 9114361 EM. Z. Svitzer A/S 01-11-2019 00:05 306 OTHER DENMARK Towing Kalundborg 30-11-2019 23:55 485 311 10,8 5,0 33,8
DJURS WIND OZAD2 9657569 Ørsted Horns Rev 2 A/S 31-10-2019 18:30 24 DK OFFSHORE INSTALLATIONS Passenger call Passengers GRENÅ 15-11-2019 07:22 117 22 5,9 2,1 25,1
KAREN M OWFL2 8228830 KEM-Offshore ApS 31-10-2019 14:40 21 OTHER DENMARK Crew change/Provion/Bunkers Esbjerg 15-11-2019 07:22 108 0 6,0 2,1 26,9
ESVAGT DANA OWGN2 9787467 Esvagt A/S 31-10-2019 09:00 303 DK OFFSHORE INSTALLATIONS Crew change/Provion/Bunkers Esbjerg 15-11-2019 06:00 3808 1000 15,2 5,5 89,8
MHO ESBJERG OXIG2 9852511 MH-O & Co A/S 31-10-2019 05:15 26 Eemshaven (NLEEM) Await orders JUELSMINDE 15-11-2019 22:22 365 0 10,3 1,6 38,6
WORLD SCIROCCO OWJU2 9681730 World Marine Offshore A/S 24-10-2019 16:00 5 Eemshaven (NLEEM) Repair Esbjerg 15-11-2019 22:22 163 0 9,5 2,1 23,7
HEIMDAL R PCUO 9127320 Rohde Nielsen A/S 22-10-2019 18:10 52 DK OFFSHORE INSTALLATIONS Split stones dordrecht 30-11-2019 22:22 2898 3974 18,7 0,0 84,0
ANNA (NOR 214) DQUQ 8933576 ANNA ( NOR 214 ) 22-10-2019 09:00 14 OTHER DENMARK Discharge Bivalves (muslinger) Norddeich 15-11-2019 22:22 193 235 10,0 2,5 35,2
OLYMPIC ARTEMIS LAFV8 9726217 Niels Winther Maritime ApS 19-10-2019 15:15 305 Rotterdam Temporary laid up FOSNAVAAG 31-12-2019 12:00 4744 3100 19,2 5,7 87,8
OLYMPIC ORION LDEA 9617313 Niels Winther Maritime ApS 19-10-2019 11:25 305 Bremerhaven Temporary laid up FOSNAVAAG 31-12-2019 12:00 4902 4857 20,0 6,0 93,8
UMOE RAPID OYRX2 9822774 World Marine Offshore A/S 17-10-2019 15:30 4 Eemshaven (NLEEM) Repair Esbjerg 15-11-2019 16:22 117 15 10,6 3,0 25,0
CONNECTOR EXPRESS OYOJ2 9244568 NorSea Group Denmark A/S 16-10-2019 07:45 501 DK OFFSHORE INSTALLATIONS Discharge/load Offshore cargo FREDERICIA 30-11-2019 16:22 4030 4505 19,0 5,2 90,2
WEM 2 MCPB7 9831969 Niels Winther Maritime ApS 13-10-2019 10:50 3 Eemshaven (NLEEM) Passenger call Passengers SUNDERLAND 30-11-2019 07:22 107 0 8,0 2,1 27,4
HG 100 NOOMI OX2809 219019804 Esbjerg Krabbefiskeri ApS 06-10-2019 13:10 26 OTHER DENMARK Repair HIRTSHALS 20-11-2019 19:22 19 0 4,2 0,0 12,5
BIANCA DFOK 8716930 Grumsens Maskinfabrik A/S 02-10-2019 23:55 85 Thyborøn Repair Cuxhaven 20-11-2019 22:22 455 183 8,5 3,8 40,2
BRAVE TERN 9583782 Blue Water Shipping A/S 22-09-2019 02:50 201 DK OFFSHORE INSTALLATIONS Load Wind turbines Valetta 31-12-2019 22:22 15328 18856 39,0 6,8 131,7
SUSANNE DETY 8303276 Grumsens Maskinfabrik A/S 21-09-2019 07:10 85 Thyborøn Repair CUXHAVEN 20-11-2019 22:22 492 200 9,6 5,5 35,1
DEEP ENERGY C6YL2 9481154 GAC Denmark A/S 04-09-2019 19:50 110 NO Offshore installations Await orders Nassau 20-12-2019 19:22 25378 0 31,0 8,2 194,5
BLUE TERN 2FEP5 9598737 Blue Water Shipping A/S 02-09-2019 06:00 203 DK OFFSHORE INSTALLATIONS Demobilisation Dover 20-11-2019 22:22 19697 11013 50,0 6,5 151,0
MARGRETHE M OVOR2 9999999 KEM-Offshore ApS 13-08-2019 12:40 21 DK OFFSHORE INSTALLATIONS Passenger call Passengers ESBJERG 20-11-2019 15:22 49 0 5,0 2,0 19,8
DANMARK OXDK 5086279 Esbjerg Shipyard 25-06-2019 08:55 85 Rønne Repair Copenhagen 07-03-2020 22:22 737 0 10,1 4,9 65,0
SEA COMFORT OUZK2 9674282 TP Offshore A/S 21-06-2019 11:00 5 Borkum I. Crew change/Provion/Bunkers Grenaa 30-11-2019 12:22 326 0 11,3 2,8 25,3
LYØ (MHV 904) OVLD 219000161 Lokal Støtte Element Varde 20-06-2019 00:05 307 Helgoland I. Environmental protection Esbjerg 30-12-2019 22:22 100 0 5,6 3,6 27,2
PACIFIC OSPREY 5BUF3 9621704 Swire Blue Ocean 07-04-2019 00:40 107 Rotterdam Demobilisation Limassol 31-12-2019 15:22 24586 13155 49,0 5,5 161,3
DI-JE (E 61) OWFZ 5128062 Partsrederiet E 61 Di-Je 03-02-2019 17:30 12 OTHER DENMARK Discharge Shrimps ESBJERG 31-12-2019 19:22 48 0 6,5 2,5 20,0
HEIMDAL OXQN2 9999999 KEM-Offshore ApS 10-10-2018 14:00 21 DK OFFSHORE INSTALLATIONS Passenger call Passengers ESBJERG 31-12-2019 07:22 19 10 5,0 1,5 16,1
MADOG V4DR 6615467 Malta Towage Limited 14-09-2018 14:00 89 Esbjerg Temporary laid up BASSETERRE - ST KITTS 31-12-2019 23:55 185 0 7,2 3,7 25,7
KURBERG OW2361 8600064 Thor P/F Ltd. 16-07-2018 18:35 88 Other ports, Færø Islands Temporary laid up Torshavn 31-12-2019 23:55 488 488 8,9 3,5 38,6
TORSVIK OZ2029 7807316 Thor P/F Ltd. 13-07-2018 09:30 88 Las Palmas Load Hosvik 31-12-2019 23:55 370 0 8,5 3,6 39,2
COLGA 9V9536 8751473 Dixstone Holding LtD 24-05-2018 06:22 78 OTHER DENMARK Repair Singapore 31-12-2019 23:59 9352 0 86,3 9,8 74,7
SALLING OUIG2 7431571 Salling Offshore-Service ApS 21-05-2018 18:55 59 OTHER DENMARK Crew change/Provion/Bunkers Esbjerg 31-12-2019 23:22 370 300 7,2 4,6 37,9